Vega Gamleby — SKQG — position and weather

sailwx.info

Track history (hours):
 
Tides and Currents Weather Stations Pressure Air Temp Water Temp Dewpoint Dewpoint Depression Visibility Wind Speed Wind Dir Waves Ship Positions

Vega Gamleby

Last reported at 2020-Aug-15 12:24 UTC. Time now 2020-Oct-01 06:42 UTC.
Position N 57°44' E 016°44'.
Warning: this ship's position is 46 days out of date.

Length 31 m.

Type: Sailing vessel. MMSI: 266299000.

Date/timePositionNaut miles runAvg speedWind from/ knotsBaromVisibWave heightAir tempDewpointWater temp
2020-Aug-15 12:24N 57°44' E 016°44'3 5.9
2020-Aug-15 11:49N 57°47' E 016°40'  
2020-Aug-08 04:36N 58°20' E 016°59'0 0.0
2020-Aug-08 03:42N 58°20' E 016°59'0 0.0
2020-Aug-08 02:39N 58°20' E 016°59'11 1.2
2020-Aug-07 17:04N 58°28' E 017°14'4 6.8
2020-Aug-07 16:28N 58°31' E 017°20'54 1.6
2020-Aug-06 05:58N 59°19' E 018°06'0 0.0
2020-Aug-06 05:28N 59°19' E 018°06'0 0.0
2020-Aug-06 04:28N 59°19' E 018°06'0 0.0
2020-Aug-06 03:58N 59°19' E 018°06'0 0.0
2020-Aug-06 01:58N 59°19' E 018°06'0 0.0
2020-Aug-06 01:28N 59°19' E 018°06'0 0.0
2020-Aug-05 22:28N 59°19' E 018°06'0 0.0
2020-Aug-05 19:58N 59°19' E 018°06'0 0.0
2020-Aug-05 19:28N 59°19' E 018°06'0 0.0
2020-Aug-05 17:28N 59°19' E 018°06'0 0.0
2020-Aug-05 13:59N 59°19' E 018°06'0 0.0
2020-Aug-05 12:59N 59°19' E 018°06'0 0.0
2020-Aug-05 12:29N 59°19' E 018°06'  
Track history (hours):
 
Tides and Currents Weather Stations Pressure Air Temp Water Temp Dewpoint Dewpoint Depression Visibility Wind Speed Wind Dir Waves Ship Positions

Vega Gamleby

Last reported at 2020-Aug-15 12:24 UTC. Time now 2020-Oct-01 06:42 UTC.
Position N 57°44' E 016°44'.
Warning: this ship's position is 46 days out of date.

Length 31 m.

Type: Sailing vessel. MMSI: 266299000.

Date/timePositionNaut miles runAvg speedWind from/ knotsBaromVisibWave heightAir tempDewpointWater temp
2020-Aug-15 12:24N 57°44' E 016°44'3 5.9
2020-Aug-15 11:49N 57°47' E 016°40'  
2020-Aug-08 04:36N 58°20' E 016°59'0 0.0
2020-Aug-08 03:42N 58°20' E 016°59'0 0.0
2020-Aug-08 02:39N 58°20' E 016°59'11 1.2
2020-Aug-07 17:04N 58°28' E 017°14'4 6.8
2020-Aug-07 16:28N 58°31' E 017°20'54 1.6
2020-Aug-06 05:58N 59°19' E 018°06'0 0.0
2020-Aug-06 05:28N 59°19' E 018°06'0 0.0
2020-Aug-06 04:28N 59°19' E 018°06'0 0.0
2020-Aug-06 03:58N 59°19' E 018°06'0 0.0
2020-Aug-06 01:58N 59°19' E 018°06'0 0.0
2020-Aug-06 01:28N 59°19' E 018°06'0 0.0
2020-Aug-05 22:28N 59°19' E 018°06'0 0.0
2020-Aug-05 19:58N 59°19' E 018°06'0 0.0
2020-Aug-05 19:28N 59°19' E 018°06'0 0.0
2020-Aug-05 17:28N 59°19' E 018°06'0 0.0
2020-Aug-05 13:59N 59°19' E 018°06'0 0.0
2020-Aug-05 12:59N 59°19' E 018°06'0 0.0
2020-Aug-05 12:29N 59°19' E 018°06'  

Dump ship's entire track history